Time;durP1;ratioP1;P1;durP2;ratioP2;P2;SDS_P1;SDS_P2;PMS_P1;PMS_P2;Temp;Humidity;BMP_temperature;BMP_pressure;BME280_temperature;BME280_humidity;BME280_pressure;Samples;Min_cycle;Max_cycle;Signal;HPM_P1;HPM_P2
2021/04/10 00:00:30;;;;;;;17.92;10.38;;;;;;;3.23;63.72;96319.50;6347828;22;20012;-87
2021/04/10 00:02:55;;;;;;;15.45;11.05;;;;;;;3.33;64.72;96340.03;6348415;22;20002;-87
2021/04/10 00:05:25;;;;;;;15.20;10.68;;;;;;;3.67;63.56;96364.75;6348131;22;20086;-88
2021/04/10 00:07:50;;;;;;;39.20;11.10;;;;;;;3.56;65.33;96353.41;6348364;22;20030;-87
2021/04/10 00:10:17;;;;;;;22.55;11.70;;;;;;;3.62;65.47;96346.44;6347910;22;20013;-87
2021/04/10 00:12:43;;;;;;;26.48;15.82;;;;;;;3.39;66.40;96319.59;6348196;22;19994;-87
2021/04/10 00:15:12;;;;;;;29.73;15.88;;;;;;;3.74;65.87;96365.78;6348355;22;20009;-87
2021/04/10 00:17:38;;;;;;;24.45;15.38;;;;;;;3.40;66.02;96342.56;6347019;22;20002;-87
2021/04/10 00:20:10;;;;;;;21.58;13.52;;;;;;;3.31;63.96;96331.63;6348039;22;20006;-87
2021/04/10 00:22:35;;;;;;;23.08;12.63;;;;;;;3.38;64.66;96332.25;6346987;22;20274;-87
2021/04/10 00:25:01;;;;;;;21.65;13.10;;;;;;;3.46;65.43;96346.31;6347768;22;20089;-88
2021/04/10 00:27:26;;;;;;;28.92;13.80;;;;;;;3.41;66.62;96330.69;6375549;22;20004;-87
2021/04/10 00:29:51;;;;;;;23.92;14.10;;;;;;;3.22;65.05;96291.13;6348292;22;20002;-88
2021/04/10 00:32:17;;;;;;;23.42;14.98;;;;;;;3.41;64.25;96317.25;6348177;22;19998;-87
2021/04/10 00:34:42;;;;;;;24.02;14.43;;;;;;;3.40;64.02;96313.78;6348381;22;20010;-87
2021/04/10 00:37:08;;;;;;;28.02;13.88;;;;;;;3.13;65.48;96313.13;6348097;22;20006;-87
2021/04/10 00:39:33;;;;;;;23.10;13.85;;;;;;;3.45;65.42;96360.91;6348147;22;20013;-87
2021/04/10 00:41:59;;;;;;;20.30;13.65;;;;;;;2.64;64.93;96267.16;6347790;22;20363;-87
2021/04/10 00:44:24;;;;;;;21.92;13.20;;;;;;;3.04;65.57;96302.94;6347984;22;20358;-88
2021/04/10 00:46:50;;;;;;;41.17;13.95;;;;;;;2.70;65.51;96284.31;6348096;22;20135;-87
2021/04/10 00:49:15;;;;;;;20.95;13.13;;;;;;;2.65;66.30;96257.19;6348406;22;20024;-88
2021/04/10 00:51:41;;;;;;;20.02;12.80;;;;;;;2.89;66.25;96301.66;6375251;22;20370;-87
2021/04/10 00:54:06;;;;;;;20.02;12.63;;;;;;;2.84;66.16;96312.84;6347810;22;20009;-87
2021/04/10 00:56:32;;;;;;;17.58;11.52;;;;;;;2.85;66.15;96296.34;6348022;22;20093;-87
2021/04/10 00:58:57;;;;;;;24.40;12.15;;;;;;;2.86;67.60;96281.75;6347972;22;20009;-87
2021/04/10 01:01:23;;;;;;;27.08;12.05;;;;;;;2.88;66.98;96278.69;6347929;22;20091;-87
2021/04/10 01:03:49;;;;;;;19.25;11.73;;;;;;;2.95;65.83;96294.66;6347599;22;20006;-87
2021/04/10 01:06:14;;;;;;;17.00;10.57;;;;;;;2.73;66.16;96272.78;6348033;22;20002;-87
2021/04/10 01:08:40;;;;;;;15.32;11.60;;;;;;;2.85;66.08;96282.16;6347922;22;20006;-87
2021/04/10 01:11:27;;;;;;;16.17;11.00;;;;;;;3.33;67.08;96351.53;6375449;22;19998;-87
2021/04/10 01:14:21;;;;;;;18.58;11.20;;;;;;;3.05;67.20;96301.00;6348346;22;20055;-87
2021/04/10 01:17:03;;;;;;;14.65;11.13;;;;;;;3.01;65.93;96297.63;6347072;22;20056;-87
2021/04/10 01:19:59;;;;;;;16.83;10.57;;;;;;;3.38;67.85;96337.63;6347974;22;20033;-88
2021/04/10 01:26:05;;;;;;;16.08;10.18;;;;;;;3.08;65.88;96308.22;6375295;22;20005;-87
2021/04/10 01:28:55;;;;;;;14.75;9.85;;;;;;;3.44;66.89;96340.59;6347758;22;20002;-87
2021/04/10 01:31:30;;;;;;;17.50;11.07;;;;;;;3.06;66.86;96281.06;6347760;22;20003;-87
2021/04/10 01:34:01;;;;;;;18.15;11.05;;;;;;;3.22;67.41;96336.78;6347964;22;20425;-87
2021/04/10 01:36:31;;;;;;;18.08;12.05;;;;;;;3.15;69.79;96337.66;6374864;22;20313;-87
2021/04/10 01:38:58;;;;;;;16.50;11.47;;;;;;;2.56;68.30;96266.53;6375430;22;20007;-87
2021/04/10 01:41:24;;;;;;;18.60;12.73;;;;;;;2.33;69.28;96213.63;6349828;22;20006;-86
2021/04/10 01:43:52;;;;;;;19.17;11.80;;;;;;;2.81;67.13;96319.78;6349617;22;20382;-87
2021/04/10 01:46:19;;;;;;;21.80;12.45;;;;;;;2.55;70.10;96283.00;6349563;22;20033;-87
2021/04/10 01:48:46;;;;;;;18.02;12.65;;;;;;;2.22;68.83;96268.56;6349401;22;20359;-87
2021/04/10 01:51:13;;;;;;;17.73;11.10;;;;;;;2.51;68.62;96317.19;6349384;22;20269;-87
2021/04/10 01:53:41;;;;;;;15.63;11.07;;;;;;;2.02;68.77;96230.94;6376916;22;20006;-87
2021/04/10 01:56:07;;;;;;;16.52;10.43;;;;;;;2.24;69.33;96277.72;6349568;22;19998;-87
2021/04/10 01:58:36;;;;;;;18.15;11.32;;;;;;;2.04;70.49;96240.09;6349488;22;20073;-88
2021/04/10 02:01:02;;;;;;;13.60;10.20;;;;;;;2.46;69.13;96313.03;6377445;22;20013;-88
2021/04/10 02:03:29;;;;;;;17.10;12.02;;;;;;;1.87;71.52;96243.03;6349131;22;20006;-88
2021/04/10 02:05:56;;;;;;;16.67;10.68;;;;;;;1.95;69.88;96281.94;6349347;22;20039;-88
2021/04/10 02:08:25;;;;;;;14.02;9.82;;;;;;;1.74;70.39;96242.78;6349640;22;20002;-88
2021/04/10 02:10:53;;;;;;;15.70;10.73;;;;;;;1.79;71.38;96259.16;6349689;22;20000;-88
2021/04/10 02:13:19;;;;;;;14.93;10.80;;;;;;;1.89;69.20;96311.09;6377226;22;20377;-88
2021/04/10 02:15:45;;;;;;;18.35;11.20;;;;;;;1.72;71.51;96286.03;6349329;22;20002;-87
2021/04/10 02:18:11;;;;;;;18.08;11.45;;;;;;;1.52;71.99;96266.38;6349414;22;20006;-88
2021/04/10 02:20:36;;;;;;;18.23;12.13;;;;;;;1.44;70.55;96264.94;6349296;22;20081;-88
2021/04/10 02:23:03;;;;;;;17.80;12.68;;;;;;;1.25;71.48;96264.38;6349013;22;20002;-88
2021/04/10 02:25:29;;;;;;;18.73;12.30;;;;;;;1.59;71.87;96274.31;6349397;22;20002;-88
2021/04/10 02:27:55;;;;;;;19.23;12.45;;;;;;;1.79;70.48;96320.75;6349497;22;20354;-88
2021/04/10 02:30:22;;;;;;;18.23;11.43;;;;;;;1.34;72.05;96266.59;6348927;22;20006;-88
2021/04/10 02:33:01;;;;;;;17.38;12.25;;;;;;;1.60;72.38;96305.31;6377112;22;20029;-88
2021/04/10 02:35:29;;;;;;;16.27;10.88;;;;;;;1.68;71.97;96316.69;6376717;22;20006;-88
2021/04/10 02:37:56;;;;;;;19.25;11.43;;;;;;;1.02;71.94;96248.94;6376798;22;19998;-88
2021/04/10 02:40:24;;;;;;;20.42;10.52;;;;;;;1.28;72.50;96281.56;6349391;22;20006;-88
2021/04/10 02:42:50;;;;;;;19.00;10.38;;;;;;;0.93;72.65;96253.22;6348881;22;20068;-88
2021/04/10 02:45:23;;;;;;;19.70;11.82;;;;;;;1.00;73.55;96277.22;6349342;22;20002;-88
2021/04/10 02:47:50;;;;;;;21.08;11.00;;;;;;;0.65;73.33;96227.50;6376830;22;20002;-88
2021/04/10 02:50:18;;;;;;;16.17;10.30;;;;;;;0.88;74.37;96262.44;6348616;22;20033;-89
2021/04/10 02:52:49;;;;;;;17.27;10.30;;;;;;;0.90;74.93;96270.06;6349329;22;20304;-88
2021/04/10 02:55:19;;;;;;;17.85;9.30;;;;;;;0.58;72.51;96230.22;6349247;22;20002;-88
2021/04/10 02:57:44;;;;;;;16.15;9.93;;;;;;;1.11;73.24;96295.84;6349018;22;20007;-88
2021/04/10 03:00:12;;;;;;;17.58;10.15;;;;;;;0.66;73.83;96216.41;6348981;22;20375;-88
2021/04/10 03:02:38;;;;;;;14.43;10.30;;;;;;;0.60;73.70;96238.63;6348607;22;20089;-88
2021/04/10 03:05:05;;;;;;;15.38;10.07;;;;;;;0.77;73.91;96248.41;6348849;22;20005;-88
2021/04/10 03:07:31;;;;;;;17.45;9.52;;;;;;;0.78;74.33;96269.38;6348698;22;20002;-88
2021/04/10 03:09:57;;;;;;;14.48;9.65;;;;;;;0.68;73.76;96226.69;6348869;22;20106;-88
2021/04/10 03:12:23;;;;;;;17.52;8.73;;;;;;;0.72;73.12;96270.22;6349019;22;20010;-88
2021/04/10 03:14:50;;;;;;;13.48;9.57;;;;;;;0.17;73.53;96215.66;6348954;22;20262;-89
2021/04/10 03:17:17;;;;;;;14.65;9.60;;;;;;;-0.01;74.41;96215.75;6348859;22;20013;-89
2021/04/10 03:19:45;;;;;;;13.55;8.85;;;;;;;0.04;75.30;96225.28;6376411;22;19999;-89
2021/04/10 03:22:13;;;;;;;15.20;9.43;;;;;;;-0.01;74.98;96212.34;6348936;22;19998;-89
2021/04/10 03:24:39;;;;;;;13.35;8.82;;;;;;;0.38;74.96;96248.72;6348786;22;20048;-88
2021/04/10 03:27:05;;;;;;;16.10;9.65;;;;;;;0.52;75.14;96251.28;6376206;22;19998;-89
2021/04/10 03:29:31;;;;;;;18.92;10.07;;;;;;;0.43;74.05;96242.97;6348636;22;20002;-89
2021/04/10 03:31:58;;;;;;;22.27;9.27;;;;;;;0.89;75.31;96301.41;6348756;22;20009;-89
2021/04/10 03:34:24;;;;;;;18.10;9.25;;;;;;;0.60;74.40;96241.31;6348773;22;20333;-89
2021/04/10 03:36:50;;;;;;;15.13;8.95;;;;;;;0.59;74.23;96226.41;6348845;22;20030;-89
2021/04/10 03:39:16;;;;;;;16.30;9.32;;;;;;;0.48;73.99;96235.28;6348697;22;20005;-89
2021/04/10 03:41:41;;;;;;;16.25;8.93;;;;;;;0.52;74.08;96273.41;6348557;22;20017;-88
2021/04/10 03:44:07;;;;;;;15.85;8.65;;;;;;;0.10;75.00;96236.31;6348433;22;20058;-88
2021/04/10 03:46:36;;;;;;;14.93;8.65;;;;;;;-0.07;75.40;96233.34;6348594;22;20037;-89
2021/04/10 03:49:06;;;;;;;14.70;9.35;;;;;;;-0.36;75.37;96202.63;6348569;22;20007;-89
2021/04/10 03:51:32;;;;;;;12.80;8.80;;;;;;;0.34;74.61;96304.84;6348600;22;20010;-89
2021/04/10 03:53:58;;;;;;;15.57;8.90;;;;;;;-0.05;75.63;96257.00;6348314;22;20263;-89
2021/04/10 03:56:24;;;;;;;13.93;9.50;;;;;;;0.32;76.04;96312.53;6349040;22;19999;-89
2021/04/10 03:58:50;;;;;;;15.77;9.00;;;;;;;0.07;75.03;96288.59;6376389;22;19998;-89
2021/04/10 04:01:15;;;;;;;14.82;8.68;;;;;;;-0.36;75.88;96232.00;6348357;22;20086;-89
2021/04/10 04:03:41;;;;;;;12.45;9.38;;;;;;;-0.27;76.28;96243.78;6348475;22;20045;-89
2021/04/10 04:06:06;;;;;;;13.70;9.73;;;;;;;-0.42;75.56;96233.56;6348689;22;20009;-89
2021/04/10 04:08:32;;;;;;;13.38;9.10;;;;;;;-0.09;76.10;96283.72;6348699;22;20009;-89
2021/04/10 04:10:57;;;;;;;12.82;9.35;;;;;;;-0.55;76.54;96225.19;6376866;22;20216;-89
2021/04/10 04:13:23;;;;;;;13.82;9.90;;;;;;;-0.24;76.78;96250.22;6348794;22;20086;-89
2021/04/10 04:15:48;;;;;;;14.50;10.20;;;;;;;-0.33;76.05;96247.22;6348763;22;19998;-89
2021/04/10 04:18:14;;;;;;;17.25;10.05;;;;;;;-0.13;76.41;96276.88;6375995;22;19994;-89
2021/04/10 04:20:39;;;;;;;14.07;9.15;;;;;;;-0.30;76.47;96252.53;6348354;22;20267;-88
2021/04/10 04:23:05;;;;;;;17.48;9.30;;;;;;;-0.08;77.23;96285.25;6348334;22;20006;-89
2021/04/10 04:25:35;;;;;;;16.83;10.00;;;;;;;0.12;76.78;96324.84;6349329;22;20006;-90
2021/04/10 04:28:00;;;;;;;15.98;9.55;;;;;;;-0.39;76.71;96265.53;6350132;22;20006;-89
2021/04/10 04:30:32;;;;;;;19.00;10.48;;;;;;;-0.16;76.75;96291.78;6349363;22;20008;-89
2021/04/10 04:32:58;;;;;;;16.98;9.77;;;;;;;-0.24;76.81;96273.50;6349650;22;20059;-88
2021/04/10 04:35:24;;;;;;;19.75;12.02;;;;;;;-0.32;77.95;96265.53;6349481;22;20308;-89
2021/04/10 04:37:49;;;;;;;18.65;10.95;;;;;;;-0.10;76.16;96308.91;6377362;22;20032;-88
2021/04/10 04:40:16;;;;;;;18.33;11.10;;;;;;;0.19;77.64;96335.47;6377259;22;19998;-89
2021/04/10 04:42:41;;;;;;;18.45;11.27;;;;;;;-0.31;76.80;96272.38;6378148;22;20039;-89
2021/04/10 04:45:07;;;;;;;17.60;11.00;;;;;;;-0.46;77.41;96246.16;6349430;22;20002;-89
2021/04/10 04:47:33;;;;;;;20.20;11.30;;;;;;;0.07;76.43;96322.56;6349619;22;20006;-89
2021/04/10 04:49:59;;;;;;;19.52;12.75;;;;;;;-0.44;77.79;96246.50;6375894;22;20002;-88
2021/04/10 04:52:30;;;;;;;23.42;13.20;;;;;;;0.14;77.54;96327.88;6348394;22;20010;-89
2021/04/10 04:54:56;;;;;;;35.33;16.20;;;;;;;0.25;78.04;96323.97;6347922;22;20083;-89
2021/04/10 04:57:21;;;;;;;27.33;15.02;;;;;;;0.24;76.88;96324.38;6347914;22;20240;-89
2021/04/10 04:59:47;;;;;;;28.75;15.82;;;;;;;0.39;78.61;96355.22;6375356;22;20013;-89
2021/04/10 05:02:14;;;;;;;24.50;14.60;;;;;;;0.25;77.48;96323.22;6347979;22;20026;-89
2021/04/10 05:04:40;;;;;;;23.02;13.95;;;;;;;0.49;77.64;96356.31;6347909;22;20009;-89
2021/04/10 05:07:05;;;;;;;24.80;14.75;;;;;;;-0.03;76.57;96300.88;6348128;22;20259;-89
2021/04/10 05:09:31;;;;;;;29.88;15.20;;;;;;;-0.07;77.07;96296.69;6376048;22;20343;-89
2021/04/10 05:11:57;;;;;;;25.75;13.98;;;;;;;-0.04;77.57;96290.56;6375306;22;20069;-89
2021/04/10 05:14:22;;;;;;;22.52;12.25;;;;;;;-0.04;77.17;96274.56;6374885;22;20075;-89
2021/04/10 05:16:48;;;;;;;20.45;12.63;;;;;;;-0.08;77.15;96260.44;6347770;22;19994;-89
2021/04/10 05:19:14;;;;;;;18.75;12.23;;;;;;;0.37;77.29;96314.00;6375388;22;20022;-89
2021/04/10 05:21:39;;;;;;;30.98;13.77;;;;;;;0.29;76.67;96299.94;6347917;22;20014;-89
2021/04/10 05:24:05;;;;;;;23.67;13.07;;;;;;;0.51;76.65;96317.34;6348099;22;20002;-89
2021/04/10 05:26:31;;;;;;;23.30;14.15;;;;;;;0.61;75.85;96310.41;6348004;22;20044;-89
2021/04/10 05:28:56;;;;;;;28.27;15.18;;;;;;;0.57;76.16;96311.56;6347724;22;20006;-89
2021/04/10 05:31:23;;;;;;;25.73;14.00;;;;;;;1.04;75.29;96380.38;6375201;22;20355;-89
2021/04/10 05:33:48;;;;;;;25.52;13.98;;;;;;;1.09;74.43;96381.13;6347799;22;20267;-88
2021/04/10 05:36:14;;;;;;;19.73;13.45;;;;;;;0.68;75.43;96307.66;6347490;22;20081;-88
2021/04/10 05:38:39;;;;;;;22.92;12.23;;;;;;;0.83;74.85;96315.59;6348010;22;20356;-89
2021/04/10 05:41:06;;;;;;;18.70;13.38;;;;;;;0.86;76.07;96317.50;6375828;22;20037;-88
2021/04/10 05:43:32;;;;;;;21.33;12.73;;;;;;;1.17;73.99;96334.41;6375754;22;19999;-88
2021/04/10 05:45:57;;;;;;;24.98;13.27;;;;;;;1.08;73.63;96310.78;6347339;22;20002;-89
2021/04/10 05:48:23;;;;;;;20.23;13.32;;;;;;;1.13;73.69;96307.69;6375312;22;20033;-88
2021/04/10 05:50:48;;;;;;;25.05;13.88;;;;;;;1.48;73.36;96340.59;6347366;22;20010;-89
2021/04/10 05:53:13;;;;;;;25.75;14.00;;;;;;;1.53;75.23;96342.84;6346137;22;20006;-89
2021/04/10 05:55:39;;;;;;;29.55;12.48;;;;;;;1.45;73.77;96325.38;6375467;22;20009;-89
2021/04/10 05:58:04;;;;;;;22.40;13.15;;;;;;;1.67;73.14;96352.66;6347313;22;20002;-89
2021/04/10 06:00:30;;;;;;;31.92;13.30;;;;;;;2.02;73.00;96389.00;6346858;22;20093;-89
2021/04/10 06:02:56;;;;;;;25.13;13.82;;;;;;;2.15;74.13;96402.66;6347209;22;19998;-88
2021/04/10 06:05:22;;;;;;;25.70;14.43;;;;;;;2.09;73.89;96370.19;6347381;22;20081;-89
2021/04/10 06:07:48;;;;;;;26.33;15.18;;;;;;;1.89;74.25;96331.75;6347206;22;20026;-89
2021/04/10 06:10:15;;;;;;;24.33;13.93;;;;;;;1.98;74.07;96321.31;6347454;22;20263;-88
2021/04/10 06:12:41;;;;;;;24.33;13.82;;;;;;;2.16;72.46;96347.88;6347425;22;20025;-88
2021/04/10 06:15:09;;;;;;;25.20;13.50;;;;;;;2.26;72.49;96330.91;6352933;22;20008;-90
2021/04/10 06:17:34;;;;;;;24.08;13.98;;;;;;;2.16;71.33;96313.06;6347558;22;20002;-90
2021/04/10 06:20:00;;;;;;;22.58;12.70;;;;;;;2.14;71.59;96299.31;6347875;22;20006;-90
2021/04/10 06:22:25;;;;;;;24.45;13.43;;;;;;;2.50;71.45;96335.16;6347188;22;20002;-90
2021/04/10 06:24:51;;;;;;;24.42;13.18;;;;;;;2.37;71.13;96310.09;6348105;22;20006;-90
2021/04/10 06:27:17;;;;;;;24.98;13.50;;;;;;;3.03;71.30;96381.91;6349263;22;20014;-89
2021/04/10 06:29:43;;;;;;;20.55;13.07;;;;;;;2.92;70.71;96348.34;6349140;22;20007;-89
2021/04/10 06:32:08;;;;;;;25.05;13.82;;;;;;;3.24;70.78;96367.41;6376707;22;20029;-89
2021/04/10 06:34:34;;;;;;;20.08;12.57;;;;;;;3.47;69.29;96376.63;6348912;22;20006;-89
2021/04/10 06:37:00;;;;;;;15.88;10.80;;;;;;;3.30;69.02;96336.25;6376635;22;19998;-89
2021/04/10 06:39:25;;;;;;;18.23;10.63;;;;;;;3.30;68.74;96308.63;6348941;22;20012;-90
2021/04/10 06:41:51;;;;;;;17.70;10.63;;;;;;;3.35;69.07;96278.63;6348548;22;20136;-90
2021/04/10 06:44:16;;;;;;;19.33;10.98;;;;;;;3.32;69.18;96261.41;6376746;22;20025;-90
2021/04/10 06:46:42;;;;;;;28.38;13.75;;;;;;;3.94;68.36;96337.75;6376540;22;20359;-89
2021/04/10 06:49:09;;;;;;;31.67;13.75;;;;;;;3.40;67.90;96253.97;6377109;22;20006;-91
2021/04/10 06:51:38;;;;;;;23.38;13.32;;;;;;;4.03;67.88;96326.44;6353861;22;20018;-93
2021/04/10 06:54:07;;;;;;;17.10;12.05;;;;;;;4.40;65.95;96378.31;6353955;22;19998;-91
2021/04/10 06:56:37;;;;;;;18.65;11.32;;;;;;;4.09;66.53;96319.41;6348905;22;20015;-91
2021/04/10 06:59:15;;;;;;;22.43;11.90;;;;;;;4.63;65.89;96383.56;6349218;22;20034;-90
2021/04/10 07:01:41;;;;;;;20.33;11.25;;;;;;;4.40;65.21;96319.91;6349375;22;20228;-89
2021/04/10 07:04:08;;;;;;;17.95;11.55;;;;;;;4.81;65.58;96371.69;6348809;22;20403;-91
2021/04/10 07:06:37;;;;;;;15.88;10.35;;;;;;;4.43;64.56;96299.50;6348896;22;20370;-89
2021/04/10 07:09:02;;;;;;;17.05;11.38;;;;;;;4.90;65.88;96351.09;6376570;22;20077;-90
2021/04/10 07:11:29;;;;;;;19.52;9.23;;;;;;;4.88;63.60;96326.50;6348816;22;20020;-92
2021/04/10 07:13:54;;;;;;;12.90;7.45;;;;;;;4.85;61.71;96297.75;6348941;22;20002;-91
2021/04/10 07:16:23;;;;;;;15.32;7.70;;;;;;;5.22;61.36;96319.94;6376311;22;20006;-90
2021/04/10 07:18:48;;;;;;;15.52;9.25;;;;;;;5.30;61.32;96302.41;6348975;22;20029;-92
2021/04/10 07:21:21;;;;;;;32.33;15.88;;;;;;;5.88;61.31;96372.50;6348658;22;20635;-89
2021/04/10 07:23:48;;;;;;;23.33;12.15;;;;;;;5.54;59.43;96300.28;6348636;22;20359;-90
2021/04/10 07:26:14;;;;;;;9.70;6.22;;;;;;;5.84;58.43;96315.22;6348647;22;20007;-90
2021/04/10 07:28:40;;;;;;;9.98;6.10;;;;;;;6.14;58.72;96330.22;6347551;22;20040;-90
2021/04/10 07:31:08;;;;;;;10.60;5.78;;;;;;;5.97;57.57;96288.34;6348428;22;20002;-90
2021/04/10 07:33:38;;;;;;;10.32;5.38;;;;;;;6.57;57.38;96359.44;6348072;22;19998;-90
2021/04/10 07:36:07;;;;;;;8.50;5.57;;;;;;;6.77;55.98;96340.34;6347753;22;20012;-90
2021/04/10 07:38:37;;;;;;;11.70;4.90;;;;;;;6.61;54.82;96305.34;6348315;22;20028;-93
2021/04/10 07:41:16;;;;;;;;;;;;;;;7.00;54.71;96336.53;6349070;22;20007;-92
2021/04/10 07:43:43;;;;;;;7.70;5.10;;;;;;;6.86;54.89;96301.13;6348287;22;20177;-91
2021/04/10 07:46:18;;;;;;;10.13;5.30;;;;;;;7.04;54.93;96312.13;6348672;22;20006;-91
2021/04/10 07:49:06;;;;;;;14.30;5.47;;;;;;;6.99;54.48;96285.66;6348496;22;20010;-93
2021/04/10 07:51:38;;;;;;;7.93;5.00;;;;;;;7.25;54.66;96307.97;6348097;22;20019;-89
2021/04/10 07:54:21;;;;;;;13.80;5.28;;;;;;;7.70;53.71;96341.97;6348552;22;20043;-90
2021/04/10 07:57:10;;;;;;;11.23;4.93;;;;;;;7.65;53.86;96326.31;6348012;22;20002;-90
2021/04/10 07:59:44;;;;;;;8.40;4.47;;;;;;;7.96;52.24;96342.63;6345049;22;20045;-90
2021/04/10 08:02:14;;;;;;;9.70;4.53;;;;;;;7.68;51.79;96285.66;6348255;22;20002;-90
2021/04/10 08:04:41;;;;;;;17.60;4.90;;;;;;;7.67;52.70;96275.25;6348464;22;20003;-90
2021/04/10 08:07:11;;;;;;;13.75;4.88;;;;;;;8.01;51.48;96306.91;6376113;22;20002;-91
2021/04/10 08:09:40;;;;;;;9.55;4.75;;;;;;;8.11;50.60;96294.94;6348149;22;20489;-91
2021/04/10 08:12:09;;;;;;;9.52;4.45;;;;;;;8.14;50.72;96273.16;6348502;22;20059;-91
2021/04/10 08:14:46;;;;;;;7.95;4.35;;;;;;;8.50;50.24;96317.84;6348408;22;19998;-90
2021/04/10 08:17:35;;;;;;;8.57;4.90;;;;;;;8.82;49.24;96359.22;6347998;22;20056;-90
2021/04/10 08:20:27;;;;;;;7.50;4.47;;;;;;;8.58;49.77;96285.88;6348747;22;20362;-88
2021/04/10 08:23:13;;;;;;;8.63;3.72;;;;;;;8.48;49.09;96263.44;6348045;22;20275;-88
2021/04/10 08:25:39;;;;;;;7.43;3.85;;;;;;;8.80;48.71;96283.09;6347829;22;20085;-88
2021/04/10 08:28:05;;;;;;;6.53;3.70;;;;;;;9.03;48.40;96293.38;6348033;22;20033;-90
2021/04/10 08:30:30;;;;;;;6.03;3.50;;;;;;;9.13;46.99;96286.00;6348315;22;20258;-91
2021/04/10 08:32:56;;;;;;;8.80;3.97;;;;;;;9.34;47.23;96295.22;6348066;22;19999;-92
2021/04/10 08:35:21;;;;;;;5.25;3.15;;;;;;;9.34;46.31;96273.53;6348450;22;20002;-92
2021/04/10 08:37:58;;;;;;;8.25;3.17;;;;;;;9.60;46.30;96307.28;6348031;22;20012;-93
2021/04/10 08:40:24;;;;;;;7.32;3.03;;;;;;;9.55;46.29;96290.88;6348182;22;20338;-90
2021/04/10 08:42:50;;;;;;;7.70;3.58;;;;;;;9.94;44.45;96332.59;6347965;22;20014;-89
2021/04/10 08:45:17;;;;;;;4.97;2.80;;;;;;;10.10;45.24;96328.81;6347832;22;20006;-88
2021/04/10 08:47:43;;;;;;;8.10;3.33;;;;;;;10.02;44.41;96314.06;6347781;22;20085;-88
2021/04/10 08:50:12;;;;;;;5.75;3.33;;;;;;;10.19;45.30;96326.84;6347252;22;20010;-88
2021/04/10 08:52:38;;;;;;;3.85;3.00;;;;;;;10.01;44.36;96285.41;6347989;22;20055;-88
2021/04/10 08:55:10;;;;;;;6.00;2.90;;;;;;;10.11;44.47;96295.78;6347308;22;20036;-89
2021/04/10 08:57:41;;;;;;;6.32;3.28;;;;;;;10.31;42.45;96306.16;6347854;22;20006;-90
2021/04/10 09:00:19;;;;;;;7.07;3.50;;;;;;;10.65;44.36;96353.13;6348022;22;20006;-89
2021/04/10 09:03:05;;;;;;;6.82;3.10;;;;;;;10.48;43.70;96295.69;6348954;22;20006;-89
2021/04/10 09:05:50;;;;;;;7.60;2.90;;;;;;;10.79;41.33;96340.88;6348545;22;20002;-91
2021/04/10 09:08:29;;;;;;;8.45;2.97;;;;;;;10.86;42.08;96329.66;6347645;22;19998;-89
2021/04/10 09:10:59;;;;;;;9.85;3.28;;;;;;;10.90;42.67;96339.16;6345965;22;20378;-92
2021/04/10 09:13:27;;;;;;;6.47;2.40;;;;;;;10.49;42.62;96278.97;6343641;22;20040;-88
2021/04/10 09:16:22;;;;;;;7.43;3.20;;;;;;;11.12;41.53;96343.56;6347419;22;20010;-92
2021/04/10 09:18:51;;;;;;;10.75;5.55;;;;;;;11.21;42.15;96347.00;6347567;22;20006;-92
2021/04/10 09:21:16;;;;;;;17.48;8.48;;;;;;;10.78;42.00;96274.91;6347919;22;20090;-92
2021/04/10 09:23:47;;;;;;;7.40;4.28;;;;;;;11.07;40.88;96285.16;6347817;22;20275;-92
2021/04/10 09:26:20;;;;;;;8.30;2.90;;;;;;;11.26;40.39;96327.34;6347739;22;20009;-93
2021/04/10 09:28:54;;;;;;;8.55;2.83;;;;;;;11.40;39.65;96325.13;6347892;22;20314;-92
2021/04/10 09:31:40;;;;;;;6.70;2.83;;;;;;;11.57;41.38;96328.97;6347788;22;20002;-93
2021/04/10 09:34:48;;;;;;;4.78;2.60;;;;;;;11.51;40.61;96298.94;6347717;22;20010;-94
2021/04/10 09:37:20;;;;;;;4.18;2.40;;;;;;;11.70;40.35;96329.44;6347754;22;20002;-92
2021/04/10 09:39:56;;;;;;;6.25;2.80;;;;;;;11.82;39.11;96321.53;6347621;22;20007;-91
2021/04/10 09:42:34;;;;;;;7.35;3.00;;;;;;;11.95;40.44;96322.03;6347199;22;20367;-91
2021/04/10 09:45:23;;;;;;;4.70;2.50;;;;;;;11.92;39.22;96309.34;6347712;22;20002;-91
2021/04/10 09:47:59;;;;;;;6.35;2.70;;;;;;;12.06;38.62;96324.97;6328110;22;20006;-90
2021/04/10 09:50:25;;;;;;;6.60;3.25;;;;;;;11.96;38.02;96315.38;6347303;22;20101;-91
2021/04/10 09:53:13;;;;;;;5.88;2.80;;;;;;;12.00;39.42;96316.69;6347375;22;20077;-92
2021/04/10 09:55:49;;;;;;;5.75;2.80;;;;;;;12.17;38.88;96314.25;6347582;22;20017;-90
2021/04/10 09:58:17;;;;;;;5.20;2.75;;;;;;;12.02;38.06;96303.34;6347329;22;20017;-90
2021/04/10 10:00:43;;;;;;;5.47;2.72;;;;;;;12.28;38.38;96310.97;6348780;22;20006;-89
2021/04/10 10:03:11;;;;;;;6.15;2.45;;;;;;;11.88;37.97;96243.47;6349147;22;20081;-88
2021/04/10 10:05:43;;;;;;;5.50;2.70;;;;;;;12.00;38.04;96247.91;6349356;22;19999;-91
2021/04/10 10:08:19;;;;;;;4.13;2.10;;;;;;;12.46;38.96;96302.59;6349458;22;20002;-90
2021/04/10 10:10:51;;;;;;;5.65;2.40;;;;;;;12.16;38.78;96261.03;6349644;22;20080;-93
2021/04/10 10:13:29;;;;;;;5.43;2.50;;;;;;;12.57;38.82;96308.25;6348918;22;20005;-90
2021/04/10 10:15:55;;;;;;;6.22;2.45;;;;;;;12.26;37.38;96248.81;6349392;22;20006;-89
2021/04/10 10:18:26;;;;;;;4.78;2.20;;;;;;;12.78;37.60;96294.66;6349145;22;20381;-90
2021/04/10 10:20:56;;;;;;;5.20;2.40;;;;;;;12.25;37.12;96222.03;6349482;22;20010;-91
2021/04/10 10:23:29;;;;;;;6.18;2.70;;;;;;;12.92;36.87;96288.44;6349189;22;20011;-91
2021/04/10 10:26:03;;;;;;;3.63;2.42;;;;;;;13.19;37.49;96300.19;6349318;22;20081;-91
2021/04/10 10:28:28;;;;;;;4.82;2.25;;;;;;;12.77;37.31;96217.63;6349258;22;20263;-91
2021/04/10 10:30:54;;;;;;;5.47;2.40;;;;;;;12.91;34.47;96246.06;6349208;22;20005;-90
2021/04/10 10:33:20;;;;;;;5.30;2.33;;;;;;;13.05;34.77;96242.53;6349392;22;20009;-91
2021/04/10 10:35:51;;;;;;;5.18;2.15;;;;;;;13.52;35.50;96272.59;6349135;22;20063;-90
2021/04/10 10:38:19;;;;;;;4.32;2.20;;;;;;;13.74;35.38;96280.28;6349284;22;20381;-92
2021/04/10 10:40:48;;;;;;;5.35;2.63;;;;;;;13.74;36.23;96258.44;6376139;22;20059;-89
2021/04/10 10:43:15;;;;;;;7.60;2.85;;;;;;;13.80;36.78;96229.25;6348964;22;19998;-91
2021/04/10 10:45:50;;;;;;;5.25;2.40;;;;;;;14.06;35.76;96240.13;6348609;22;20056;-90
2021/04/10 10:48:25;;;;;;;5.13;2.65;;;;;;;14.56;37.79;96278.84;6349064;22;20358;-89
2021/04/10 10:51:01;;;;;;;4.82;2.00;;;;;;;14.62;34.85;96271.41;6349031;22;20015;-90
2021/04/10 10:53:41;;;;;;;6.75;2.83;;;;;;;14.90;34.34;96259.91;6349196;22;20002;-90
2021/04/10 10:56:19;;;;;;;3.60;2.20;;;;;;;14.81;35.60;96221.84;6348893;22;20006;-88
2021/04/10 10:58:50;;;;;;;5.15;2.30;;;;;;;14.80;31.26;96212.13;6348984;22;20006;-91
2021/04/10 11:01:23;;;;;;;6.57;2.08;;;;;;;15.35;32.59;96258.16;6349398;22;19998;-91
2021/04/10 11:04:01;;;;;;;4.43;2.38;;;;;;;15.54;33.19;96246.78;6349015;22;20010;-89
2021/04/10 11:06:32;;;;;;;4.05;2.40;;;;;;;15.73;32.53;96260.81;6350875;22;20359;-90
2021/04/10 11:09:05;;;;;;;5.80;2.90;;;;;;;15.71;33.21;96222.94;6349257;22;20026;-91
2021/04/10 11:11:37;;;;;;;6.07;2.50;;;;;;;16.08;32.33;96252.13;6346964;22;20013;-89
2021/04/10 11:14:04;;;;;;;6.38;3.22;;;;;;;16.27;31.53;96242.19;6349300;22;19998;-92
2021/04/10 11:16:30;;;;;;;7.03;3.00;;;;;;;15.95;32.11;96197.84;6324144;22;20365;-89
2021/04/10 11:18:58;;;;;;;5.63;2.70;;;;;;;16.36;32.74;96241.22;6348733;22;20028;-88
2021/04/10 11:21:29;;;;;;;10.25;4.07;;;;;;;16.19;31.73;96200.09;6348579;22;20003;-90
2021/04/10 11:24:13;;;;;;;6.90;2.88;;;;;;;16.21;29.89;96236.72;6348615;22;20068;-91
2021/04/10 11:26:50;;;;;;;5.53;2.33;;;;;;;16.23;33.99;96204.06;6348072;22;20008;-89
2021/04/10 11:29:16;;;;;;;5.10;2.25;;;;;;;16.70;36.28;96242.66;6349694;22;20354;-88
2021/04/10 11:32:12;;;;;;;4.63;2.45;;;;;;;16.77;31.84;96239.44;6357882;22;20416;-91
2021/04/10 11:34:53;;;;;;;4.88;2.30;;;;;;;16.76;31.18;96240.69;6334558;22;20320;-88
2021/04/10 11:37:30;;;;;;;;;;;;;;;16.91;30.16;96236.91;6377119;22;20026;-87
2021/04/10 11:39:57;;;;;;;5.28;2.42;;;;;;;16.77;28.34;96230.47;6348065;22;20159;-88
2021/04/10 11:42:30;;;;;;;6.85;2.40;;;;;;;16.97;28.90;96229.41;6348520;22;20002;-89